createdAt,value
2023-02-03T00:02:57.623Z,24.40
2023-02-03T00:06:27.437Z,18.30
2023-02-03T00:09:49.312Z,23.40
2023-02-03T00:13:09.985Z,22.90
2023-02-03T00:16:50.104Z,19.70
2023-02-03T00:20:38.289Z,22.20
2023-02-03T00:24:22.041Z,21.60
2023-02-03T00:27:40.437Z,20.80
2023-02-03T00:31:44.693Z,20.30
2023-02-03T00:35:41.814Z,23.50
2023-02-03T00:39:13.183Z,25.20
2023-02-03T00:42:30.015Z,24.00
2023-02-03T00:46:23.933Z,19.70
2023-02-03T00:49:58.815Z,22.10
2023-02-03T00:53:49.464Z,25.40
2023-02-03T00:57:43.316Z,31.20
2023-02-03T01:01:09.814Z,25.90
2023-02-03T01:05:05.694Z,22.90
2023-02-03T01:08:32.872Z,29.40
2023-02-03T01:12:06.639Z,23.00
2023-02-03T01:15:49.265Z,30.10
2023-02-03T01:22:57.529Z,25.90
2023-02-03T01:26:32.851Z,27.00
2023-02-03T01:30:17.006Z,25.90
2023-02-03T01:37:21.346Z,24.70
2023-02-03T01:41:13.983Z,25.30
2023-02-03T01:45:03.610Z,24.40
2023-02-03T01:48:31.134Z,28.80
2023-02-03T01:52:19.340Z,29.40
2023-02-03T01:55:47.969Z,26.00
2023-02-03T01:59:37.739Z,28.60
2023-02-03T02:03:24.701Z,28.30
2023-02-03T02:07:28.668Z,29.80
2023-02-03T02:11:32.639Z,29.50
2023-02-03T02:15:37.138Z,26.70
2023-02-03T02:19:45.871Z,30.40
2023-02-03T02:23:52.848Z,28.80
2023-02-03T02:28:18.570Z,33.30
2023-02-03T02:32:21.928Z,32.70
2023-02-03T02:36:23.333Z,31.80
2023-02-03T02:40:20.912Z,33.60
2023-02-03T02:44:24.946Z,30.80
2023-02-03T02:48:29.085Z,33.20
2023-02-03T02:52:23.437Z,31.80
2023-02-03T02:56:27.511Z,29.30
2023-02-03T03:00:21.454Z,32.00
2023-02-03T03:04:25.772Z,33.60
2023-02-03T03:08:29.860Z,29.60
2023-02-03T03:12:34.761Z,31.10
2023-02-03T03:16:38.902Z,29.90
2023-02-03T03:20:42.981Z,31.70
2023-02-03T03:24:48.581Z,33.10
2023-02-03T03:28:45.385Z,26.60
2023-02-03T03:36:23.101Z,32.40
2023-02-03T03:40:36.028Z,28.30
2023-02-03T03:44:33.568Z,28.00
2023-02-03T03:48:37.588Z,27.30
2023-02-03T03:52:45.467Z,28.10
2023-02-03T03:56:41.953Z,25.30
2023-02-03T04:00:36.474Z,27.50
2023-02-03T04:04:40.845Z,33.50
2023-02-03T04:12:22.021Z,27.70
2023-02-03T04:16:26.027Z,23.60
2023-02-03T04:20:30.529Z,23.00
2023-02-03T04:24:34.485Z,25.20
2023-02-03T04:28:42.050Z,24.60
2023-02-03T04:32:46.269Z,27.30
2023-02-03T04:36:50.263Z,27.80
2023-02-03T04:40:54.236Z,27.20
2023-02-03T04:44:49.078Z,22.00
2023-02-03T04:48:44.726Z,24.50
2023-02-03T04:52:51.544Z,25.50
2023-02-03T04:56:55.696Z,26.30
2023-02-03T05:00:59.839Z,24.30
2023-02-03T05:05:05.226Z,25.10
2023-02-03T05:09:03.242Z,23.40
2023-02-03T05:13:07.577Z,23.70
2023-02-03T05:17:11.538Z,24.60
2023-02-03T05:21:17.730Z,17.20
2023-02-03T05:25:21.629Z,23.80
2023-02-03T05:29:26.620Z,23.00
2023-02-03T05:33:30.687Z,18.40
2023-02-03T05:37:26.275Z,23.20
2023-02-03T05:41:28.493Z,21.70
2023-02-03T05:45:34.606Z,20.30
2023-02-03T05:49:38.641Z,22.40
2023-02-03T05:53:32.528Z,19.90
2023-02-03T05:57:36.586Z,20.30
2023-02-03T06:01:40.674Z,21.40
2023-02-03T06:05:44.803Z,22.80
2023-02-03T06:09:48.756Z,22.30
2023-02-03T06:13:53.939Z,22.70
2023-02-03T06:17:58.023Z,26.70
2023-02-03T06:22:03.056Z,24.80
2023-02-03T06:26:07.239Z,27.90
2023-02-03T06:30:04.073Z,29.50
2023-02-03T06:34:08.189Z,29.70
2023-02-03T06:38:12.261Z,32.70
2023-02-03T06:42:16.336Z,30.70
2023-02-03T06:46:20.310Z,28.70
2023-02-03T06:50:25.808Z,31.60
2023-02-03T06:54:12.682Z,27.80
2023-02-03T06:58:16.847Z,30.30
2023-02-03T07:02:20.971Z,30.50
2023-02-03T07:06:25.226Z,26.00
2023-02-03T07:10:29.495Z,30.20
2023-02-03T07:18:25.688Z,28.80
2023-02-03T07:22:31.059Z,30.60
2023-02-03T07:26:34.992Z,28.90
2023-02-03T07:30:39.019Z,28.50
2023-02-03T07:34:43.025Z,29.70
2023-02-03T07:38:48.072Z,26.00
2023-02-03T07:42:52.155Z,26.40
2023-02-03T07:46:57.894Z,26.40
2023-02-03T07:51:01.798Z,28.20
2023-02-03T07:55:06.941Z,30.80
2023-02-03T07:59:11.957Z,30.50
2023-02-03T08:03:15.857Z,28.20
2023-02-03T08:07:09.885Z,28.30
2023-02-03T08:11:13.857Z,26.30
2023-02-03T08:15:18.759Z,29.00
2023-02-03T08:19:22.608Z,28.80
2023-02-03T08:23:20.227Z,31.50
2023-02-03T08:27:24.474Z,31.60
2023-02-03T08:31:28.573Z,31.90
2023-02-03T08:35:32.505Z,31.30
2023-02-03T08:39:36.408Z,26.10
2023-02-03T08:43:40.231Z,26.70
2023-02-03T08:47:44.285Z,31.60
2023-02-03T08:51:51.207Z,27.40
2023-02-03T08:55:55.380Z,27.90
2023-02-03T08:59:59.350Z,26.50
2023-02-03T09:03:56.657Z,26.40
2023-02-03T09:07:51.619Z,25.10
2023-02-03T09:11:57.048Z,25.40
2023-02-03T09:16:01.076Z,22.80
2023-02-03T09:20:05.500Z,23.10
2023-02-03T09:24:09.406Z,23.70
2023-02-03T09:28:14.298Z,23.50
2023-02-03T09:36:02.691Z,23.00
2023-02-03T09:40:08.781Z,24.00
2023-02-03T09:44:32.250Z,21.40
2023-02-03T09:48:36.352Z,20.10
2023-02-03T09:52:35.628Z,22.80
2023-02-03T09:56:39.688Z,21.00
2023-02-03T10:00:44.100Z,21.70
2023-02-03T10:05:11.646Z,20.00
2023-02-03T10:09:21.477Z,18.60
2023-02-03T10:13:31.568Z,19.50
2023-02-03T10:17:40.172Z,22.40
2023-02-03T10:21:42.783Z,20.30
2023-02-03T10:25:45.299Z,21.00
2023-02-03T10:29:49.251Z,24.90
2023-02-03T10:33:43.189Z,20.60
2023-02-03T10:38:11.320Z,20.80
2023-02-03T10:42:17.021Z,23.60
2023-02-03T10:46:21.024Z,29.20
2023-02-03T10:50:26.339Z,26.00
2023-02-03T10:54:35.570Z,23.70
2023-02-03T10:58:39.493Z,23.10
2023-02-03T11:02:40.394Z,22.90
2023-02-03T11:06:47.126Z,25.80
2023-02-03T11:11:01.512Z,26.30
2023-02-03T11:15:05.495Z,24.80
2023-02-03T11:19:15.220Z,27.30
2023-02-03T11:23:31.611Z,23.10
2023-02-03T11:27:38.008Z,22.40
2023-02-03T11:31:42.044Z,22.90
2023-02-03T11:35:58.238Z,25.40
2023-02-03T11:40:11.548Z,22.40
2023-02-03T11:44:15.471Z,25.30
2023-02-03T11:48:19.844Z,22.50
2023-02-03T11:52:34.659Z,24.60
2023-02-03T11:56:56.625Z,28.30
2023-02-03T12:01:03.569Z,27.80
2023-02-03T12:05:31.914Z,28.30
2023-02-03T12:10:06.436Z,27.40
2023-02-03T12:14:13.472Z,31.80
2023-02-03T12:18:20.407Z,27.80
2023-02-03T12:22:23.083Z,32.90
2023-02-03T12:26:14.104Z,30.60
2023-02-03T12:30:21.349Z,35.20
2023-02-03T12:34:27.960Z,31.80
2023-02-03T12:38:47.849Z,31.50
2023-02-03T12:43:13.447Z,27.00
2023-02-03T12:47:18.525Z,25.60
2023-02-03T12:51:25.277Z,19.10
2023-02-03T12:55:29.395Z,16.70
2023-02-03T12:59:39.232Z,10.80
2023-02-03T13:03:46.048Z,14.30
2023-02-03T13:08:05.161Z,11.40
2023-02-03T13:12:21.297Z,13.70
2023-02-03T13:16:28.377Z,9.50
2023-02-03T13:20:33.583Z,18.60
2023-02-03T13:24:13.333Z,10.20
2023-02-03T13:28:27.322Z,14.60
2023-02-03T13:32:48.335Z,19.80
2023-02-03T13:37:11.280Z,15.70
2023-02-03T13:41:22.288Z,10.90
2023-02-03T13:45:26.361Z,14.50
2023-02-03T13:49:30.327Z,13.70
2023-02-03T13:53:34.305Z,19.00
2023-02-03T13:57:39.682Z,13.60
2023-02-03T14:01:35.768Z,16.20
2023-02-03T14:05:32.522Z,28.30
2023-02-03T14:09:36.344Z,21.70
2023-02-03T14:13:40.387Z,21.90
2023-02-03T14:17:45.387Z,18.10
2023-02-03T14:21:49.359Z,22.90
2023-02-03T14:25:54.115Z,20.20
2023-02-03T14:30:04.036Z,18.80
2023-02-03T14:34:07.265Z,27.00
2023-02-03T14:38:23.817Z,22.10
2023-02-03T14:42:28.671Z,24.60
2023-02-03T14:46:34.157Z,26.80
2023-02-03T14:50:39.075Z,19.20
2023-02-03T14:55:01.471Z,22.70
2023-02-03T14:59:11.292Z,24.40
2023-02-03T15:03:15.626Z,26.00
2023-02-03T15:07:30.972Z,24.80
2023-02-03T15:11:41.258Z,29.70
2023-02-03T15:15:48.030Z,28.30
2023-02-03T15:19:56.442Z,35.20
2023-02-03T15:24:00.534Z,37.30
2023-02-03T15:28:04.610Z,42.80
2023-02-03T15:32:08.880Z,71.60
2023-02-03T15:36:12.917Z,36.40
2023-02-03T15:40:26.933Z,34.00
2023-02-03T15:44:36.605Z,36.90
2023-02-03T15:48:43.623Z,43.00
2023-02-03T15:52:37.498Z,38.00
2023-02-03T15:56:44.915Z,26.80
2023-02-03T16:00:52.968Z,27.60
2023-02-03T16:04:50.326Z,26.50
2023-02-03T16:09:08.261Z,23.30
2023-02-03T16:13:13.371Z,29.40
2023-02-03T16:17:17.327Z,44.20
2023-02-03T16:21:23.626Z,33.00
2023-02-03T16:25:33.646Z,24.70
2023-02-03T16:29:42.192Z,19.40
2023-02-03T16:33:47.570Z,13.70
2023-02-03T16:37:52.984Z,20.90
2023-02-03T16:41:55.239Z,32.20
2023-02-03T16:45:58.131Z,27.80
2023-02-03T16:50:00.273Z,29.80
2023-02-03T16:54:04.338Z,30.20
2023-02-03T16:58:08.300Z,18.60
2023-02-03T17:02:12.378Z,29.60
2023-02-03T17:06:20.525Z,31.60
2023-02-03T17:10:24.621Z,20.00
2023-02-03T17:14:18.311Z,22.60
2023-02-03T17:18:22.384Z,20.80
2023-02-03T17:22:26.424Z,26.50
2023-02-03T17:26:30.344Z,23.00
2023-02-03T17:30:35.540Z,21.20
2023-02-03T17:38:16.921Z,24.10
2023-02-03T17:55:25.239Z,19.50
2023-02-03T17:59:31.053Z,21.70
2023-02-03T18:03:35.110Z,18.30
2023-02-03T18:07:39.165Z,15.00
2023-02-03T18:11:43.132Z,26.50
2023-02-03T18:15:37.190Z,23.20
2023-02-03T18:19:46.647Z,17.60
2023-02-03T18:23:53.337Z,16.80
2023-02-03T18:27:58.225Z,45.60
2023-02-03T18:32:09.274Z,32.40
2023-02-03T18:36:13.155Z,20.10
2023-02-03T18:40:09.475Z,19.40
2023-02-03T18:44:03.737Z,16.40
2023-02-03T18:51:51.157Z,18.70
2023-02-03T18:55:55.311Z,22.40
2023-02-03T18:59:59.272Z,18.00
2023-02-03T19:04:03.341Z,18.40
2023-02-03T19:07:57.485Z,14.90
2023-02-03T19:15:45.307Z,18.70
2023-02-03T19:23:33.021Z,17.60
2023-02-03T19:27:36.977Z,24.00
2023-02-03T19:31:45.127Z,15.30
2023-02-03T19:35:29.083Z,20.10
2023-02-03T19:43:02.235Z,16.00
2023-02-03T19:47:07.479Z,14.30
2023-02-03T19:51:11.380Z,17.30
2023-02-03T19:55:15.301Z,19.10
2023-02-03T19:59:19.464Z,13.40
2023-02-03T20:03:23.537Z,9.30
2023-02-03T20:07:28.785Z,12.10
2023-02-03T20:11:34.839Z,8.60
2023-02-03T20:15:28.680Z,15.00
2023-02-03T20:19:34.880Z,12.70
2023-02-03T20:23:38.485Z,9.30
2023-02-03T20:27:35.303Z,14.90
2023-02-03T20:31:33.289Z,16.30
2023-02-03T20:35:37.425Z,13.50
2023-02-03T20:39:34.638Z,12.60
2023-02-03T20:43:29.824Z,12.10
2023-02-03T20:47:33.760Z,10.50
2023-02-03T20:51:38.551Z,9.40
2023-02-03T20:55:42.508Z,8.40
2023-02-03T20:59:39.416Z,9.40
2023-02-03T21:03:43.783Z,7.30
2023-02-03T21:11:32.373Z,9.60
2023-02-03T21:15:36.344Z,5.80
2023-02-03T21:19:40.501Z,5.00
2023-02-03T21:23:17.967Z,7.60
2023-02-03T21:27:22.649Z,7.00
2023-02-03T21:31:29.822Z,4.50
2023-02-03T21:35:33.944Z,5.20
2023-02-03T21:39:40.062Z,6.50
2023-02-03T21:43:43.949Z,3.40
2023-02-03T21:47:47.897Z,7.00
2023-02-03T21:51:58.718Z,14.50
2023-02-03T21:56:02.690Z,11.70
2023-02-03T22:00:09.750Z,11.90
2023-02-03T22:04:16.735Z,10.20
2023-02-03T22:08:20.691Z,5.40
2023-02-03T22:12:24.648Z,5.10
2023-02-03T22:16:28.905Z,7.80
2023-02-03T22:20:32.986Z,5.60
2023-02-03T22:24:37.234Z,5.90
2023-02-03T22:28:42.202Z,5.90
2023-02-03T22:32:49.381Z,5.30
2023-02-03T22:36:54.397Z,2.60
2023-02-03T22:40:58.320Z,4.90
2023-02-03T22:45:02.181Z,3.10
2023-02-03T22:49:06.278Z,5.10
2023-02-03T22:53:10.235Z,4.50
2023-02-03T22:57:04.384Z,3.10
2023-02-03T23:01:08.460Z,2.70
2023-02-03T23:05:12.586Z,5.70
2023-02-03T23:09:16.557Z,3.30
2023-02-03T23:13:21.645Z,5.00
2023-02-03T23:17:25.324Z,6.10
2023-02-03T23:21:29.453Z,3.30
2023-02-03T23:25:33.327Z,6.10
2023-02-03T23:29:37.295Z,18.30
2023-02-03T23:33:41.551Z,21.00
2023-02-03T23:37:24.326Z,21.10
2023-02-03T23:41:28.253Z,22.30
2023-02-03T23:45:32.360Z,21.00
2023-02-03T23:49:37.346Z,20.70
2023-02-03T23:53:39.867Z,17.90
2023-02-03T23:57:44.049Z,20.40
